createdAt,value
2018-06-05T00:02:37.142Z,16.40
2018-06-05T00:07:42.089Z,16.40
2018-06-05T00:12:46.898Z,16.40
2018-06-05T00:17:53.196Z,16.40
2018-06-05T00:22:57.927Z,16.50
2018-06-05T00:28:02.758Z,16.40
2018-06-05T00:33:10.124Z,16.20
2018-06-05T00:38:14.896Z,16.30
2018-06-05T00:43:19.636Z,16.30
2018-06-05T00:48:24.488Z,16.30
2018-06-05T00:59:03.978Z,16.10
2018-06-05T01:04:10.254Z,16.20
2018-06-05T01:10:18.904Z,16.10
2018-06-05T01:15:23.865Z,16.00
2018-06-05T01:20:28.998Z,16.10
2018-06-05T01:25:33.778Z,16.10
2018-06-05T01:30:38.579Z,16.20
2018-06-05T01:35:43.654Z,16.20
2018-06-05T01:40:48.594Z,16.30
2018-06-05T01:45:53.652Z,16.30
2018-06-05T01:50:58.330Z,16.30
2018-06-05T01:56:03.622Z,16.30
2018-06-05T02:01:08.258Z,16.30
2018-06-05T02:06:13.217Z,16.20
2018-06-05T02:11:18.907Z,16.30
2018-06-05T02:16:23.708Z,16.40
2018-06-05T02:21:28.716Z,16.40
2018-06-05T02:26:33.524Z,16.30
2018-06-05T02:31:38.291Z,16.30
2018-06-05T02:36:43.172Z,16.30
2018-06-05T02:41:48.206Z,16.20
2018-06-05T02:46:54.041Z,16.20
2018-06-05T02:51:58.762Z,16.10
2018-06-05T02:57:03.594Z,16.00
2018-06-05T03:02:08.524Z,15.90
2018-06-05T03:07:15.932Z,16.00
2018-06-05T03:12:20.821Z,15.90
2018-06-05T03:17:25.849Z,15.90
2018-06-05T03:22:30.784Z,15.90
2018-06-05T03:27:35.834Z,15.80
2018-06-05T03:32:40.755Z,15.70
2018-06-05T03:37:46.055Z,15.70
2018-06-05T03:42:51.448Z,15.70
2018-06-05T03:47:56.574Z,15.50
2018-06-05T03:53:01.460Z,15.50
2018-06-05T03:58:06.221Z,15.40
2018-06-05T04:03:10.928Z,15.30
2018-06-05T04:08:15.889Z,15.30
2018-06-05T04:13:20.588Z,15.40
2018-06-05T04:18:25.685Z,15.60
2018-06-05T04:23:30.424Z,15.60
2018-06-05T04:28:35.032Z,15.60
2018-06-05T04:33:39.652Z,15.70
2018-06-05T04:38:44.510Z,15.70
2018-06-05T04:43:49.935Z,15.80
2018-06-05T04:48:54.823Z,16.00
2018-06-05T04:53:59.619Z,16.30
2018-06-05T04:59:04.385Z,16.50
2018-06-05T05:04:09.325Z,16.70
2018-06-05T05:09:14.238Z,16.90
2018-06-05T05:14:20.629Z,17.10
2018-06-05T05:19:25.863Z,17.20
2018-06-05T05:24:53.937Z,17.30
2018-06-05T05:29:58.587Z,17.60
2018-06-05T05:35:03.334Z,17.80
2018-06-05T05:40:08.104Z,18.10
2018-06-05T05:45:12.710Z,18.00
2018-06-05T05:50:17.366Z,18.50
2018-06-05T05:55:22.129Z,18.80
2018-06-05T06:00:26.920Z,19.00
2018-06-05T06:05:31.734Z,19.20
2018-06-05T06:10:36.498Z,19.00
2018-06-05T06:15:41.188Z,18.90
2018-06-05T06:20:46.057Z,18.80
2018-06-05T06:25:50.768Z,18.50
2018-06-05T06:30:55.613Z,18.50
2018-06-05T06:36:01.182Z,18.80
2018-06-05T06:41:05.800Z,19.20
2018-06-05T06:46:10.491Z,19.30
2018-06-05T06:51:15.375Z,19.50
2018-06-05T06:56:20.223Z,20.10
2018-06-05T07:01:25.071Z,20.50
2018-06-05T07:11:34.281Z,20.20
2018-06-05T07:16:39.252Z,20.50
2018-06-05T07:21:43.980Z,20.50
2018-06-05T07:26:48.633Z,20.80
2018-06-05T07:31:53.473Z,20.80
2018-06-05T07:36:58.304Z,20.80
2018-06-05T07:42:03.151Z,21.00
2018-06-05T07:47:07.857Z,21.20
2018-06-05T07:52:12.568Z,21.10
2018-06-05T07:57:17.333Z,21.20
2018-06-05T08:02:22.080Z,21.50
2018-06-05T08:07:26.727Z,21.80
2018-06-05T08:12:31.535Z,21.90
2018-06-05T08:17:36.261Z,22.00
2018-06-05T08:22:56.609Z,21.80
2018-06-05T08:28:01.411Z,21.60
2018-06-05T08:33:06.776Z,21.50
2018-06-05T08:38:11.707Z,21.60
2018-06-05T08:43:16.460Z,22.00
2018-06-05T08:48:21.093Z,22.40
2018-06-05T08:53:26.933Z,22.40
2018-06-05T08:58:31.603Z,22.60
2018-06-05T09:03:36.360Z,22.60
2018-06-05T09:08:40.935Z,22.80
2018-06-05T09:13:46.832Z,22.80
2018-06-05T09:18:51.743Z,23.40
2018-06-05T09:23:56.592Z,23.40
2018-06-05T09:29:01.243Z,23.80
2018-06-05T09:34:05.844Z,23.80
2018-06-05T09:39:11.150Z,23.70
2018-06-05T09:44:15.971Z,23.80
2018-06-05T09:49:20.814Z,23.90
2018-06-05T09:54:25.504Z,24.20
2018-06-05T09:59:30.085Z,23.90
2018-06-05T10:04:34.652Z,23.90
2018-06-05T10:09:40.661Z,24.20
2018-06-05T10:14:45.487Z,23.90
2018-06-05T10:19:50.338Z,24.10
2018-06-05T10:24:55.027Z,23.90
2018-06-05T10:29:59.779Z,24.40
2018-06-05T10:35:05.032Z,24.70
2018-06-05T10:40:10.023Z,25.10
2018-06-05T10:45:14.804Z,25.10
2018-06-05T10:50:19.464Z,25.40
2018-06-05T10:55:24.703Z,25.50
2018-06-05T11:00:29.450Z,25.80
2018-06-05T11:05:34.175Z,25.60
2018-06-05T11:10:39.090Z,25.80
2018-06-05T11:15:43.949Z,26.30
2018-06-05T11:20:49.240Z,26.70
2018-06-05T11:25:54.597Z,26.40
2018-06-05T11:30:59.380Z,26.50
2018-06-05T11:36:04.141Z,26.50
2018-06-05T11:41:09.796Z,26.30
2018-06-05T11:46:14.430Z,26.80
2018-06-05T11:56:24.069Z,27.30
2018-06-05T12:01:28.740Z,27.40
2018-06-05T12:06:33.483Z,27.90
2018-06-05T12:11:38.235Z,29.40
2018-06-05T12:16:43.151Z,30.60
2018-06-05T12:26:52.213Z,33.10
2018-06-05T12:31:56.916Z,33.50
2018-06-05T12:37:01.688Z,34.40
2018-06-05T12:42:07.116Z,34.30
2018-06-05T12:47:11.737Z,34.00
2018-06-05T12:52:16.397Z,33.40
2018-06-05T12:57:21.128Z,33.80
2018-06-05T13:07:30.196Z,33.20
2018-06-05T13:12:34.704Z,33.90
2018-06-05T13:17:39.600Z,35.10
2018-06-05T13:22:44.400Z,35.80
2018-06-05T13:27:49.112Z,35.40
2018-06-05T13:32:54.491Z,36.40
2018-06-05T13:37:59.542Z,36.90
2018-06-05T13:43:04.250Z,35.90
2018-06-05T13:48:09.114Z,35.80
2018-06-05T13:53:14.646Z,36.10
2018-06-05T13:58:19.361Z,37.50
2018-06-05T14:03:24.144Z,37.30
2018-06-05T14:08:29.059Z,36.70
2018-06-05T14:13:33.758Z,37.40
2018-06-05T14:18:38.526Z,38.10
2018-06-05T14:23:43.507Z,38.70
2018-06-05T14:28:49.103Z,39.00
2018-06-05T14:33:53.779Z,38.00
2018-06-05T14:38:58.922Z,37.90
2018-06-05T14:44:03.774Z,39.20
2018-06-05T14:49:09.317Z,39.80
2018-06-05T14:54:13.947Z,40.00
2018-06-05T14:59:18.658Z,39.90
2018-06-05T15:04:23.602Z,39.50
2018-06-05T15:09:29.181Z,38.30
2018-06-05T15:14:33.985Z,36.30
2018-06-05T15:19:38.959Z,35.60
2018-06-05T15:24:43.672Z,35.40
2018-06-05T15:29:48.287Z,36.00
2018-06-05T15:34:53.304Z,35.70
2018-06-05T15:39:57.774Z,37.00
2018-06-05T15:45:02.742Z,37.50
2018-06-05T15:50:07.371Z,36.70
2018-06-05T15:55:12.124Z,35.20
2018-06-05T16:00:17.389Z,34.30
2018-06-05T16:05:22.256Z,33.40
2018-06-05T16:10:27.249Z,33.70
2018-06-05T16:15:32.885Z,34.50
2018-06-05T16:20:37.867Z,33.80
2018-06-05T16:25:42.873Z,33.30
2018-06-05T16:30:49.139Z,32.90
2018-06-05T16:35:55.888Z,32.00
2018-06-05T16:41:00.796Z,32.40
2018-06-05T16:46:05.519Z,32.20
2018-06-05T16:51:10.461Z,32.30
2018-06-05T16:56:16.005Z,32.40
2018-06-05T17:01:20.727Z,32.30
2018-06-05T17:06:25.404Z,32.20
2018-06-05T17:11:30.314Z,31.00
2018-06-05T17:16:35.445Z,30.30
2018-06-05T17:21:40.456Z,29.40
2018-06-05T17:26:45.160Z,29.10
2018-06-05T17:31:50.119Z,28.90
2018-06-05T17:36:55.113Z,28.70
2018-06-05T17:42:00.160Z,28.60
2018-06-05T17:47:04.797Z,28.50
2018-06-05T17:52:09.683Z,28.40
2018-06-05T17:57:15.272Z,28.20
2018-06-05T18:02:20.849Z,28.10
2018-06-05T18:07:27.744Z,27.90
2018-06-05T18:12:32.443Z,27.90
2018-06-05T18:17:37.512Z,27.70
2018-06-05T18:22:42.243Z,27.50
2018-06-05T18:32:52.364Z,26.90
2018-06-05T18:38:01.461Z,26.60
2018-06-05T18:43:10.110Z,26.30
2018-06-05T18:48:18.034Z,26.10
2018-06-05T18:53:27.207Z,25.80
2018-06-05T18:58:34.501Z,25.50
2018-06-05T19:03:39.386Z,25.40
2018-06-05T19:08:44.220Z,25.10
2018-06-05T19:13:49.091Z,24.90
2018-06-05T19:18:54.012Z,24.70
2018-06-05T19:23:59.471Z,24.50
2018-06-05T19:29:04.502Z,24.40
2018-06-05T19:34:09.559Z,24.20
2018-06-05T19:39:14.481Z,24.00
2018-06-05T19:44:19.327Z,23.90
2018-06-05T19:54:28.777Z,23.80
2018-06-05T19:59:34.020Z,23.70
2018-06-05T20:04:38.711Z,23.70
2018-06-05T20:09:44.141Z,23.60
2018-06-05T20:14:48.837Z,23.60
2018-06-05T20:19:53.710Z,23.60
2018-06-05T20:24:58.473Z,23.60
2018-06-05T20:30:03.578Z,23.60
2018-06-05T20:35:08.376Z,23.50
2018-06-05T20:40:13.224Z,23.40
2018-06-05T20:45:18.707Z,23.40
2018-06-05T20:50:23.647Z,23.30
2018-06-05T20:55:28.381Z,23.30
2018-06-05T21:00:33.342Z,23.10
2018-06-05T21:05:38.039Z,22.60
2018-06-05T21:10:43.334Z,22.50
2018-06-05T21:15:48.106Z,22.40
2018-06-05T21:20:52.982Z,22.20
2018-06-05T21:25:58.435Z,22.20
2018-06-05T21:31:03.681Z,22.10
2018-06-05T21:36:08.414Z,22.10
2018-06-05T21:41:13.766Z,22.00
2018-06-05T21:46:19.323Z,21.80
2018-06-05T21:51:24.515Z,21.70
2018-06-05T21:56:29.190Z,21.50
2018-06-05T22:01:34.155Z,21.30
2018-06-05T22:06:38.902Z,21.10
2018-06-05T22:11:43.479Z,21.00
2018-06-05T22:16:48.491Z,21.00
2018-06-05T22:21:53.381Z,20.80
2018-06-05T22:26:58.032Z,20.70
2018-06-05T22:37:09.228Z,20.60
2018-06-05T22:42:13.992Z,20.40
2018-06-05T22:47:18.924Z,20.40
2018-06-05T22:52:23.901Z,20.50
2018-06-05T22:57:31.372Z,20.50
2018-06-05T23:02:37.472Z,20.40
2018-06-05T23:07:43.478Z,20.30
2018-06-05T23:12:49.735Z,20.10
2018-06-05T23:17:54.394Z,20.00
2018-06-05T23:22:59.076Z,19.90
2018-06-05T23:28:04.076Z,19.80
2018-06-05T23:33:24.912Z,19.70
2018-06-05T23:38:30.577Z,19.50
2018-06-05T23:43:37.331Z,19.50
2018-06-05T23:48:43.352Z,19.50
2018-06-05T23:53:48.236Z,19.40
2018-06-05T23:59:00.141Z,19.40
